sensor_id;sensor_type;location;lat;lon;timestamp;P1;durP1;ratioP1;P2;durP2;ratioP2
77872;SDS011;67068;52.116;4.440;2024-03-07T00:01:32;27.50;;;13.68;;
77872;SDS011;67068;52.116;4.440;2024-03-07T00:03:58;26.92;;;12.93;;
77872;SDS011;67068;52.116;4.440;2024-03-07T00:06:23;32.03;;;14.35;;
77872;SDS011;67068;52.116;4.440;2024-03-07T00:08:49;27.77;;;14.55;;
77872;SDS011;67068;52.116;4.440;2024-03-07T00:11:17;26.52;;;13.75;;
77872;SDS011;67068;52.116;4.440;2024-03-07T00:13:44;29.55;;;14.93;;
77872;SDS011;67068;52.116;4.440;2024-03-07T00:16:09;31.30;;;15.07;;
77872;SDS011;67068;52.116;4.440;2024-03-07T00:18:35;29.65;;;15.45;;
77872;SDS011;67068;52.116;4.440;2024-03-07T00:21:04;27.33;;;15.02;;
77872;SDS011;67068;52.116;4.440;2024-03-07T00:23:29;27.85;;;14.35;;
77872;SDS011;67068;52.116;4.440;2024-03-07T00:25:57;25.73;;;13.38;;
77872;SDS011;67068;52.116;4.440;2024-03-07T00:28:22;31.33;;;14.55;;
77872;SDS011;67068;52.116;4.440;2024-03-07T00:30:47;30.03;;;15.13;;
77872;SDS011;67068;52.116;4.440;2024-03-07T00:33:12;30.43;;;14.53;;
77872;SDS011;67068;52.116;4.440;2024-03-07T00:35:38;26.15;;;14.95;;
77872;SDS011;67068;52.116;4.440;2024-03-07T00:38:04;31.08;;;15.55;;
77872;SDS011;67068;52.116;4.440;2024-03-07T00:40:29;27.00;;;13.70;;
77872;SDS011;67068;52.116;4.440;2024-03-07T00:42:55;27.97;;;14.03;;
77872;SDS011;67068;52.116;4.440;2024-03-07T00:45:20;27.30;;;14.10;;
77872;SDS011;67068;52.116;4.440;2024-03-07T00:47:45;31.67;;;16.13;;
77872;SDS011;67068;52.116;4.440;2024-03-07T00:50:10;30.00;;;14.23;;
77872;SDS011;67068;52.116;4.440;2024-03-07T00:52:36;26.50;;;13.73;;
77872;SDS011;67068;52.116;4.440;2024-03-07T00:55:02;28.08;;;14.52;;
77872;SDS011;67068;52.116;4.440;2024-03-07T00:57:27;31.48;;;14.45;;
77872;SDS011;67068;52.116;4.440;2024-03-07T00:59:52;33.73;;;15.90;;
77872;SDS011;67068;52.116;4.440;2024-03-07T01:02:17;31.23;;;15.03;;
77872;SDS011;67068;52.116;4.440;2024-03-07T01:04:43;26.50;;;12.98;;
77872;SDS011;67068;52.116;4.440;2024-03-07T01:07:08;30.60;;;15.17;;
77872;SDS011;67068;52.116;4.440;2024-03-07T01:09:34;28.37;;;14.30;;
77872;SDS011;67068;52.116;4.440;2024-03-07T01:12:00;31.65;;;15.05;;
77872;SDS011;67068;52.116;4.440;2024-03-07T01:14:28;27.95;;;14.10;;
77872;SDS011;67068;52.116;4.440;2024-03-07T01:16:53;28.23;;;13.83;;
77872;SDS011;67068;52.116;4.440;2024-03-07T01:19:19;29.30;;;16.08;;
77872;SDS011;67068;52.116;4.440;2024-03-07T01:21:44;28.53;;;13.50;;
77872;SDS011;67068;52.116;4.440;2024-03-07T01:24:09;27.47;;;14.37;;
77872;SDS011;67068;52.116;4.440;2024-03-07T01:26:34;28.90;;;14.27;;
77872;SDS011;67068;52.116;4.440;2024-03-07T01:29:00;31.70;;;15.13;;
77872;SDS011;67068;52.116;4.440;2024-03-07T01:31:25;28.70;;;13.53;;
77872;SDS011;67068;52.116;4.440;2024-03-07T01:33:50;31.42;;;15.23;;
77872;SDS011;67068;52.116;4.440;2024-03-07T01:36:16;26.38;;;14.65;;
77872;SDS011;67068;52.116;4.440;2024-03-07T01:38:41;24.47;;;13.67;;
77872;SDS011;67068;52.116;4.440;2024-03-07T01:41:07;30.58;;;15.20;;
77872;SDS011;67068;52.116;4.440;2024-03-07T01:43:32;30.17;;;14.07;;
77872;SDS011;67068;52.116;4.440;2024-03-07T01:45:58;31.10;;;16.48;;
77872;SDS011;67068;52.116;4.440;2024-03-07T01:48:28;31.27;;;15.82;;
77872;SDS011;67068;52.116;4.440;2024-03-07T01:50:56;27.63;;;14.65;;
77872;SDS011;67068;52.116;4.440;2024-03-07T01:53:22;32.50;;;15.07;;
77872;SDS011;67068;52.116;4.440;2024-03-07T01:55:48;27.10;;;12.93;;
77872;SDS011;67068;52.116;4.440;2024-03-07T01:58:13;28.92;;;13.82;;
77872;SDS011;67068;52.116;4.440;2024-03-07T02:00:41;30.73;;;14.95;;
77872;SDS011;67068;52.116;4.440;2024-03-07T02:03:08;28.02;;;14.70;;
77872;SDS011;67068;52.116;4.440;2024-03-07T02:05:34;26.47;;;14.47;;
77872;SDS011;67068;52.116;4.440;2024-03-07T02:07:59;31.40;;;15.47;;
77872;SDS011;67068;52.116;4.440;2024-03-07T02:10:24;30.00;;;14.30;;
77872;SDS011;67068;52.116;4.440;2024-03-07T02:12:50;30.30;;;14.80;;
77872;SDS011;67068;52.116;4.440;2024-03-07T02:15:15;31.43;;;15.70;;
77872;SDS011;67068;52.116;4.440;2024-03-07T02:17:40;30.00;;;13.60;;
77872;SDS011;67068;52.116;4.440;2024-03-07T02:20:06;31.55;;;15.57;;
77872;SDS011;67068;52.116;4.440;2024-03-07T02:22:33;29.95;;;16.10;;
77872;SDS011;67068;52.116;4.440;2024-03-07T02:24:58;29.30;;;14.50;;
77872;SDS011;67068;52.116;4.440;2024-03-07T02:27:23;33.10;;;14.97;;
77872;SDS011;67068;52.116;4.440;2024-03-07T02:29:48;28.60;;;15.03;;
77872;SDS011;67068;52.116;4.440;2024-03-07T02:32:16;31.40;;;13.88;;
77872;SDS011;67068;52.116;4.440;2024-03-07T02:34:41;31.67;;;14.38;;
77872;SDS011;67068;52.116;4.440;2024-03-07T02:37:08;31.27;;;15.75;;
77872;SDS011;67068;52.116;4.440;2024-03-07T02:39:34;30.15;;;14.40;;
77872;SDS011;67068;52.116;4.440;2024-03-07T02:42:00;30.38;;;14.52;;
77872;SDS011;67068;52.116;4.440;2024-03-07T02:44:25;31.63;;;15.73;;
77872;SDS011;67068;52.116;4.440;2024-03-07T02:46:50;29.83;;;14.93;;
77872;SDS011;67068;52.116;4.440;2024-03-07T02:49:15;32.83;;;16.33;;
77872;SDS011;67068;52.116;4.440;2024-03-07T02:51:41;30.63;;;14.87;;
77872;SDS011;67068;52.116;4.440;2024-03-07T02:54:07;31.48;;;14.07;;
77872;SDS011;67068;52.116;4.440;2024-03-07T02:56:32;31.05;;;15.50;;
77872;SDS011;67068;52.116;4.440;2024-03-07T02:58:57;32.87;;;17.50;;
77872;SDS011;67068;52.116;4.440;2024-03-07T03:01:23;32.87;;;16.23;;
77872;SDS011;67068;52.116;4.440;2024-03-07T03:03:48;26.80;;;14.77;;
77872;SDS011;67068;52.116;4.440;2024-03-07T03:06:13;32.33;;;17.10;;
77872;SDS011;67068;52.116;4.440;2024-03-07T03:08:38;29.13;;;15.67;;
77872;SDS011;67068;52.116;4.440;2024-03-07T03:11:04;35.43;;;17.67;;
77872;SDS011;67068;52.116;4.440;2024-03-07T03:13:29;34.67;;;16.93;;
77872;SDS011;67068;52.116;4.440;2024-03-07T03:15:54;31.75;;;14.98;;
77872;SDS011;67068;52.116;4.440;2024-03-07T03:18:23;30.88;;;15.27;;
77872;SDS011;67068;52.116;4.440;2024-03-07T03:20:48;32.53;;;16.58;;
77872;SDS011;67068;52.116;4.440;2024-03-07T03:23:14;31.15;;;15.82;;
77872;SDS011;67068;52.116;4.440;2024-03-07T03:25:39;33.40;;;17.17;;
77872;SDS011;67068;52.116;4.440;2024-03-07T03:28:05;32.42;;;15.00;;
77872;SDS011;67068;52.116;4.440;2024-03-07T03:30:30;31.48;;;15.77;;
77872;SDS011;67068;52.116;4.440;2024-03-07T03:32:55;34.28;;;16.52;;
77872;SDS011;67068;52.116;4.440;2024-03-07T03:35:20;34.03;;;16.70;;
77872;SDS011;67068;52.116;4.440;2024-03-07T03:37:46;28.90;;;14.87;;
77872;SDS011;67068;52.116;4.440;2024-03-07T03:40:11;30.50;;;14.57;;
77872;SDS011;67068;52.116;4.440;2024-03-07T03:42:40;31.52;;;15.55;;
77872;SDS011;67068;52.116;4.440;2024-03-07T03:45:06;34.67;;;18.35;;
77872;SDS011;67068;52.116;4.440;2024-03-07T03:47:36;33.08;;;17.08;;
77872;SDS011;67068;52.116;4.440;2024-03-07T03:50:02;31.52;;;14.90;;
77872;SDS011;67068;52.116;4.440;2024-03-07T03:52:27;33.42;;;17.73;;
77872;SDS011;67068;52.116;4.440;2024-03-07T03:54:54;33.22;;;16.15;;
77872;SDS011;67068;52.116;4.440;2024-03-07T03:57:19;31.73;;;17.00;;
77872;SDS011;67068;52.116;4.440;2024-03-07T03:59:44;31.00;;;17.13;;
77872;SDS011;67068;52.116;4.440;2024-03-07T04:02:10;34.40;;;16.35;;
77872;SDS011;67068;52.116;4.440;2024-03-07T04:04:38;33.58;;;16.83;;
77872;SDS011;67068;52.116;4.440;2024-03-07T04:07:03;32.83;;;16.05;;
77872;SDS011;67068;52.116;4.440;2024-03-07T04:09:29;35.25;;;18.58;;
77872;SDS011;67068;52.116;4.440;2024-03-07T04:11:54;34.40;;;18.57;;
77872;SDS011;67068;52.116;4.440;2024-03-07T04:14:19;38.77;;;17.53;;
77872;SDS011;67068;52.116;4.440;2024-03-07T04:16:45;35.58;;;16.40;;
77872;SDS011;67068;52.116;4.440;2024-03-07T04:19:10;35.13;;;17.10;;
77872;SDS011;67068;52.116;4.440;2024-03-07T04:21:35;34.30;;;15.57;;
77872;SDS011;67068;52.116;4.440;2024-03-07T04:24:01;33.65;;;16.13;;
77872;SDS011;67068;52.116;4.440;2024-03-07T04:26:27;31.35;;;14.27;;
77872;SDS011;67068;52.116;4.440;2024-03-07T04:28:53;34.77;;;16.60;;
77872;SDS011;67068;52.116;4.440;2024-03-07T04:31:18;30.83;;;15.70;;
77872;SDS011;67068;52.116;4.440;2024-03-07T04:33:43;31.92;;;15.57;;
77872;SDS011;67068;52.116;4.440;2024-03-07T04:36:08;34.17;;;16.67;;
77872;SDS011;67068;52.116;4.440;2024-03-07T04:38:34;32.43;;;16.57;;
77872;SDS011;67068;52.116;4.440;2024-03-07T04:40:59;31.27;;;16.70;;
77872;SDS011;67068;52.116;4.440;2024-03-07T04:43:24;34.60;;;15.75;;
77872;SDS011;67068;52.116;4.440;2024-03-07T04:45:51;34.10;;;16.48;;
77872;SDS011;67068;52.116;4.440;2024-03-07T04:48:16;30.52;;;16.08;;
77872;SDS011;67068;52.116;4.440;2024-03-07T04:50:41;28.00;;;14.90;;
77872;SDS011;67068;52.116;4.440;2024-03-07T04:53:07;34.97;;;16.55;;
77872;SDS011;67068;52.116;4.440;2024-03-07T04:55:32;35.03;;;18.52;;
77872;SDS011;67068;52.116;4.440;2024-03-07T04:57:58;29.23;;;14.40;;
77872;SDS011;67068;52.116;4.440;2024-03-07T05:00:23;34.40;;;16.55;;
77872;SDS011;67068;52.116;4.440;2024-03-07T05:02:49;35.05;;;17.65;;
77872;SDS011;67068;52.116;4.440;2024-03-07T05:05:15;33.10;;;16.60;;
77872;SDS011;67068;52.116;4.440;2024-03-07T05:07:47;32.47;;;15.68;;
77872;SDS011;67068;52.116;4.440;2024-03-07T05:10:12;30.58;;;15.00;;
77872;SDS011;67068;52.116;4.440;2024-03-07T05:12:37;31.73;;;15.53;;
77872;SDS011;67068;52.116;4.440;2024-03-07T05:15:03;34.70;;;17.53;;
77872;SDS011;67068;52.116;4.440;2024-03-07T05:17:29;34.40;;;17.35;;
77872;SDS011;67068;52.116;4.440;2024-03-07T05:19:56;30.58;;;15.85;;
77872;SDS011;67068;52.116;4.440;2024-03-07T05:22:21;31.30;;;15.93;;
77872;SDS011;67068;52.116;4.440;2024-03-07T05:24:50;34.53;;;16.25;;
77872;SDS011;67068;52.116;4.440;2024-03-07T05:27:16;33.10;;;16.27;;
77872;SDS011;67068;52.116;4.440;2024-03-07T05:29:41;30.63;;;16.73;;
77872;SDS011;67068;52.116;4.440;2024-03-07T05:32:23;35.50;;;16.08;;
77872;SDS011;67068;52.116;4.440;2024-03-07T05:34:48;30.30;;;15.15;;
77872;SDS011;67068;52.116;4.440;2024-03-07T05:37:14;35.05;;;18.33;;
77872;SDS011;67068;52.116;4.440;2024-03-07T05:39:39;28.10;;;15.47;;
77872;SDS011;67068;52.116;4.440;2024-03-07T05:42:04;31.97;;;17.10;;
77872;SDS011;67068;52.116;4.440;2024-03-07T05:44:31;30.13;;;15.43;;
77872;SDS011;67068;52.116;4.440;2024-03-07T05:46:57;31.43;;;15.80;;
77872;SDS011;67068;52.116;4.440;2024-03-07T05:49:22;36.03;;;16.27;;
77872;SDS011;67068;52.116;4.440;2024-03-07T05:51:47;32.92;;;16.38;;
77872;SDS011;67068;52.116;4.440;2024-03-07T05:54:12;32.00;;;16.97;;
77872;SDS011;67068;52.116;4.440;2024-03-07T05:56:38;34.00;;;14.60;;
77872;SDS011;67068;52.116;4.440;2024-03-07T05:59:03;36.55;;;17.02;;
77872;SDS011;67068;52.116;4.440;2024-03-07T06:01:29;28.95;;;14.85;;
77872;SDS011;67068;52.116;4.440;2024-03-07T06:03:57;32.08;;;16.55;;
77872;SDS011;67068;52.116;4.440;2024-03-07T06:06:23;31.60;;;17.15;;
77872;SDS011;67068;52.116;4.440;2024-03-07T06:08:49;34.05;;;18.05;;
77872;SDS011;67068;52.116;4.440;2024-03-07T06:11:14;33.35;;;17.15;;
77872;SDS011;67068;52.116;4.440;2024-03-07T06:13:44;28.80;;;15.35;;
77872;SDS011;67068;52.116;4.440;2024-03-07T06:16:11;32.63;;;16.65;;
77872;SDS011;67068;52.116;4.440;2024-03-07T06:18:36;30.43;;;14.87;;
77872;SDS011;67068;52.116;4.440;2024-03-07T06:21:01;29.27;;;14.23;;
77872;SDS011;67068;52.116;4.440;2024-03-07T06:23:29;32.38;;;16.75;;
77872;SDS011;67068;52.116;4.440;2024-03-07T06:25:55;31.55;;;16.98;;
77872;SDS011;67068;52.116;4.440;2024-03-07T06:28:23;33.08;;;14.73;;
77872;SDS011;67068;52.116;4.440;2024-03-07T06:30:48;30.17;;;14.97;;
77872;SDS011;67068;52.116;4.440;2024-03-07T06:33:14;35.73;;;17.67;;
77872;SDS011;67068;52.116;4.440;2024-03-07T06:35:43;32.53;;;17.73;;
77872;SDS011;67068;52.116;4.440;2024-03-07T06:38:09;31.13;;;16.13;;
77872;SDS011;67068;52.116;4.440;2024-03-07T06:40:34;31.83;;;15.75;;
77872;SDS011;67068;52.116;4.440;2024-03-07T06:43:00;30.00;;;13.93;;
77872;SDS011;67068;52.116;4.440;2024-03-07T06:45:25;25.77;;;12.77;;
77872;SDS011;67068;52.116;4.440;2024-03-07T06:47:51;29.00;;;15.18;;
77872;SDS011;67068;52.116;4.440;2024-03-07T06:50:19;34.50;;;13.90;;
77872;SDS011;67068;52.116;4.440;2024-03-07T06:52:47;29.33;;;14.27;;
77872;SDS011;67068;52.116;4.440;2024-03-07T06:55:16;31.80;;;15.25;;
77872;SDS011;67068;52.116;4.440;2024-03-07T06:57:44;25.15;;;10.20;;
77872;SDS011;67068;52.116;4.440;2024-03-07T07:00:13;34.38;;;15.57;;
77872;SDS011;67068;52.116;4.440;2024-03-07T07:02:39;28.27;;;12.77;;
77872;SDS011;67068;52.116;4.440;2024-03-07T07:05:06;25.65;;;12.90;;
77872;SDS011;67068;52.116;4.440;2024-03-07T07:07:35;26.48;;;11.18;;
77872;SDS011;67068;52.116;4.440;2024-03-07T07:10:01;28.08;;;12.80;;
77872;SDS011;67068;52.116;4.440;2024-03-07T07:12:27;29.20;;;13.90;;
77872;SDS011;67068;52.116;4.440;2024-03-07T07:14:55;26.88;;;11.35;;
77872;SDS011;67068;52.116;4.440;2024-03-07T07:17:21;35.60;;;15.48;;
77872;SDS011;67068;52.116;4.440;2024-03-07T07:19:48;28.13;;;14.77;;
77872;SDS011;67068;52.116;4.440;2024-03-07T07:22:14;29.67;;;14.27;;
77872;SDS011;67068;52.116;4.440;2024-03-07T07:24:39;27.67;;;14.17;;
77872;SDS011;67068;52.116;4.440;2024-03-07T07:27:05;29.35;;;14.40;;
77872;SDS011;67068;52.116;4.440;2024-03-07T07:29:32;29.10;;;13.13;;
77872;SDS011;67068;52.116;4.440;2024-03-07T07:31:57;28.17;;;12.43;;
77872;SDS011;67068;52.116;4.440;2024-03-07T07:34:22;28.53;;;13.57;;
77872;SDS011;67068;52.116;4.440;2024-03-07T07:36:48;27.90;;;11.53;;
77872;SDS011;67068;52.116;4.440;2024-03-07T07:39:13;26.20;;;12.77;;
77872;SDS011;67068;52.116;4.440;2024-03-07T07:41:42;27.55;;;13.50;;
77872;SDS011;67068;52.116;4.440;2024-03-07T07:44:07;34.33;;;15.05;;
77872;SDS011;67068;52.116;4.440;2024-03-07T07:46:33;22.02;;;10.57;;
77872;SDS011;67068;52.116;4.440;2024-03-07T07:48:59;33.40;;;16.58;;
77872;SDS011;67068;52.116;4.440;2024-03-07T07:51:24;20.87;;;10.30;;
77872;SDS011;67068;52.116;4.440;2024-03-07T07:53:50;31.75;;;16.60;;
77872;SDS011;67068;52.116;4.440;2024-03-07T07:56:15;25.03;;;12.20;;
77872;SDS011;67068;52.116;4.440;2024-03-07T07:58:41;27.35;;;13.88;;
77872;SDS011;67068;52.116;4.440;2024-03-07T08:01:06;31.25;;;14.27;;
77872;SDS011;67068;52.116;4.440;2024-03-07T08:03:34;29.63;;;14.88;;
77872;SDS011;67068;52.116;4.440;2024-03-07T08:06:00;28.58;;;13.63;;
77872;SDS011;67068;52.116;4.440;2024-03-07T08:08:26;29.05;;;13.30;;
77872;SDS011;67068;52.116;4.440;2024-03-07T08:10:51;28.47;;;14.47;;
77872;SDS011;67068;52.116;4.440;2024-03-07T08:13:16;29.00;;;14.93;;
77872;SDS011;67068;52.116;4.440;2024-03-07T08:15:41;34.23;;;17.23;;
77872;SDS011;67068;52.116;4.440;2024-03-07T08:18:07;26.88;;;13.70;;
77872;SDS011;67068;52.116;4.440;2024-03-07T08:20:35;30.67;;;15.60;;
77872;SDS011;67068;52.116;4.440;2024-03-07T08:23:00;20.95;;;11.45;;
77872;SDS011;67068;52.116;4.440;2024-03-07T08:25:26;22.30;;;11.57;;
77872;SDS011;67068;52.116;4.440;2024-03-07T08:27:55;28.52;;;12.75;;
77872;SDS011;67068;52.116;4.440;2024-03-07T08:30:21;29.60;;;14.63;;
77872;SDS011;67068;52.116;4.440;2024-03-07T08:33:05;26.75;;;12.48;;
77872;SDS011;67068;52.116;4.440;2024-03-07T08:35:31;29.13;;;14.57;;
77872;SDS011;67068;52.116;4.440;2024-03-07T08:37:56;23.05;;;11.98;;
77872;SDS011;67068;52.116;4.440;2024-03-07T08:40:23;25.95;;;11.18;;
77872;SDS011;67068;52.116;4.440;2024-03-07T08:42:51;17.75;;;8.52;;
77872;SDS011;67068;52.116;4.440;2024-03-07T08:45:16;21.25;;;9.07;;
77872;SDS011;67068;52.116;4.440;2024-03-07T08:47:49;28.35;;;15.82;;
77872;SDS011;67068;52.116;4.440;2024-03-07T08:50:14;29.48;;;15.75;;
77872;SDS011;67068;52.116;4.440;2024-03-07T08:52:41;21.95;;;11.10;;
77872;SDS011;67068;52.116;4.440;2024-03-07T08:55:08;26.17;;;12.82;;
77872;SDS011;67068;52.116;4.440;2024-03-07T08:57:42;25.20;;;13.77;;
77872;SDS011;67068;52.116;4.440;2024-03-07T09:00:09;24.20;;;11.60;;
77872;SDS011;67068;52.116;4.440;2024-03-07T09:02:36;28.50;;;15.07;;
77872;SDS011;67068;52.116;4.440;2024-03-07T09:05:01;17.63;;;9.57;;
77872;SDS011;67068;52.116;4.440;2024-03-07T09:07:26;23.20;;;12.77;;
77872;SDS011;67068;52.116;4.440;2024-03-07T09:09:54;25.08;;;12.88;;
77872;SDS011;67068;52.116;4.440;2024-03-07T09:12:19;28.00;;;14.93;;
77872;SDS011;67068;52.116;4.440;2024-03-07T09:14:45;25.38;;;13.50;;
77872;SDS011;67068;52.116;4.440;2024-03-07T09:17:10;22.03;;;11.43;;
77872;SDS011;67068;52.116;4.440;2024-03-07T09:19:35;28.27;;;14.43;;
77872;SDS011;67068;52.116;4.440;2024-03-07T09:22:01;30.85;;;13.75;;
77872;SDS011;67068;52.116;4.440;2024-03-07T09:24:28;27.63;;;15.57;;
77872;SDS011;67068;52.116;4.440;2024-03-07T09:26:53;28.10;;;15.77;;
77872;SDS011;67068;52.116;4.440;2024-03-07T09:29:21;27.90;;;12.77;;
77872;SDS011;67068;52.116;4.440;2024-03-07T09:31:49;22.40;;;11.98;;
77872;SDS011;67068;52.116;4.440;2024-03-07T09:34:15;33.05;;;13.00;;
77872;SDS011;67068;52.116;4.440;2024-03-07T09:36:41;21.88;;;12.27;;
77872;SDS011;67068;52.116;4.440;2024-03-07T09:39:07;23.75;;;13.90;;
77872;SDS011;67068;52.116;4.440;2024-03-07T09:41:33;19.05;;;10.43;;
77872;SDS011;67068;52.116;4.440;2024-03-07T09:43:58;17.73;;;8.30;;
77872;SDS011;67068;52.116;4.440;2024-03-07T09:46:25;22.52;;;11.52;;
77872;SDS011;67068;52.116;4.440;2024-03-07T09:48:50;23.30;;;11.90;;
77872;SDS011;67068;52.116;4.440;2024-03-07T09:51:18;25.88;;;14.88;;
77872;SDS011;67068;52.116;4.440;2024-03-07T09:53:44;24.23;;;15.07;;
77872;SDS011;67068;52.116;4.440;2024-03-07T09:56:10;24.02;;;15.38;;
77872;SDS011;67068;52.116;4.440;2024-03-07T09:58:38;22.67;;;11.80;;
77872;SDS011;67068;52.116;4.440;2024-03-07T10:01:04;22.00;;;12.05;;
77872;SDS011;67068;52.116;4.440;2024-03-07T10:03:35;18.80;;;10.32;;
77872;SDS011;67068;52.116;4.440;2024-03-07T10:06:00;18.27;;;9.77;;
77872;SDS011;67068;52.116;4.440;2024-03-07T10:08:27;21.92;;;12.80;;
77872;SDS011;67068;52.116;4.440;2024-03-07T10:10:54;15.35;;;6.28;;
77872;SDS011;67068;52.116;4.440;2024-03-07T10:13:21;20.98;;;11.57;;
77872;SDS011;67068;52.116;4.440;2024-03-07T10:15:47;21.38;;;11.75;;
77872;SDS011;67068;52.116;4.440;2024-03-07T10:18:13;19.90;;;11.10;;
77872;SDS011;67068;52.116;4.440;2024-03-07T10:20:39;13.63;;;5.78;;
77872;SDS011;67068;52.116;4.440;2024-03-07T10:23:04;16.13;;;8.30;;
77872;SDS011;67068;52.116;4.440;2024-03-07T10:25:32;14.73;;;7.28;;
77872;SDS011;67068;52.116;4.440;2024-03-07T10:28:02;12.50;;;6.40;;
77872;SDS011;67068;52.116;4.440;2024-03-07T10:30:29;17.55;;;9.02;;
77872;SDS011;67068;52.116;4.440;2024-03-07T10:32:58;15.85;;;8.15;;
77872;SDS011;67068;52.116;4.440;2024-03-07T10:35:24;17.67;;;7.68;;
77872;SDS011;67068;52.116;4.440;2024-03-07T10:37:50;12.05;;;6.93;;
77872;SDS011;67068;52.116;4.440;2024-03-07T10:40:19;18.45;;;10.23;;
77872;SDS011;67068;52.116;4.440;2024-03-07T10:42:45;16.85;;;10.20;;
77872;SDS011;67068;52.116;4.440;2024-03-07T10:45:11;15.98;;;9.63;;
77872;SDS011;67068;52.116;4.440;2024-03-07T10:47:37;19.17;;;12.68;;
77872;SDS011;67068;52.116;4.440;2024-03-07T10:52:40;12.68;;;6.78;;
77872;SDS011;67068;52.116;4.440;2024-03-07T10:55:15;19.45;;;11.65;;
77872;SDS011;67068;52.116;4.440;2024-03-07T11:00:09;19.40;;;9.00;;
77872;SDS011;67068;52.116;4.440;2024-03-07T11:03:02;17.83;;;8.52;;
77872;SDS011;67068;52.116;4.440;2024-03-07T11:05:37;19.00;;;10.25;;
77872;SDS011;67068;52.116;4.440;2024-03-07T11:08:04;17.10;;;7.90;;
77872;SDS011;67068;52.116;4.440;2024-03-07T11:10:42;17.35;;;8.60;;
77872;SDS011;67068;52.116;4.440;2024-03-07T11:13:15;16.40;;;7.32;;
77872;SDS011;67068;52.116;4.440;2024-03-07T11:16:03;13.40;;;6.88;;
77872;SDS011;67068;52.116;4.440;2024-03-07T11:18:31;20.08;;;11.90;;
77872;SDS011;67068;52.116;4.440;2024-03-07T11:21:02;18.17;;;8.90;;
77872;SDS011;67068;52.116;4.440;2024-03-07T11:23:33;19.88;;;12.07;;
77872;SDS011;67068;52.116;4.440;2024-03-07T11:26:09;18.70;;;10.40;;
77872;SDS011;67068;52.116;4.440;2024-03-07T11:31:13;17.38;;;10.30;;
77872;SDS011;67068;52.116;4.440;2024-03-07T11:33:39;18.92;;;12.50;;
77872;SDS011;67068;52.116;4.440;2024-03-07T11:36:06;20.55;;;9.82;;
77872;SDS011;67068;52.116;4.440;2024-03-07T11:38:32;14.75;;;7.70;;
77872;SDS011;67068;52.116;4.440;2024-03-07T11:41:03;17.05;;;8.43;;
77872;SDS011;67068;52.116;4.440;2024-03-07T11:43:48;12.70;;;7.10;;
77872;SDS011;67068;52.116;4.440;2024-03-07T11:46:13;18.27;;;10.07;;
77872;SDS011;67068;52.116;4.440;2024-03-07T11:48:41;18.48;;;10.55;;
77872;SDS011;67068;52.116;4.440;2024-03-07T11:51:07;19.90;;;9.10;;
77872;SDS011;67068;52.116;4.440;2024-03-07T11:53:38;18.40;;;11.05;;
77872;SDS011;67068;52.116;4.440;2024-03-07T11:56:06;13.68;;;7.00;;
77872;SDS011;67068;52.116;4.440;2024-03-07T11:58:37;19.52;;;10.88;;
77872;SDS011;67068;52.116;4.440;2024-03-07T12:01:06;17.48;;;9.35;;
77872;SDS011;67068;52.116;4.440;2024-03-07T12:03:36;17.65;;;8.88;;
77872;SDS011;67068;52.116;4.440;2024-03-07T12:06:02;17.00;;;8.68;;
77872;SDS011;67068;52.116;4.440;2024-03-07T12:08:28;12.48;;;5.00;;
77872;SDS011;67068;52.116;4.440;2024-03-07T12:10:54;19.13;;;8.93;;
77872;SDS011;67068;52.116;4.440;2024-03-07T12:13:21;20.15;;;8.48;;
77872;SDS011;67068;52.116;4.440;2024-03-07T12:15:47;18.55;;;9.18;;
77872;SDS011;67068;52.116;4.440;2024-03-07T12:18:16;9.68;;;4.00;;
77872;SDS011;67068;52.116;4.440;2024-03-07T12:20:42;14.13;;;7.32;;
77872;SDS011;67068;52.116;4.440;2024-03-07T12:23:12;19.33;;;10.93;;
77872;SDS011;67068;52.116;4.440;2024-03-07T12:25:37;19.67;;;11.45;;
77872;SDS011;67068;52.116;4.440;2024-03-07T12:30:36;20.40;;;11.07;;
77872;SDS011;67068;52.116;4.440;2024-03-07T12:33:04;19.45;;;10.23;;
77872;SDS011;67068;52.116;4.440;2024-03-07T12:35:32;20.38;;;8.70;;
77872;SDS011;67068;52.116;4.440;2024-03-07T12:37:58;17.80;;;10.57;;
77872;SDS011;67068;52.116;4.440;2024-03-07T12:40:23;19.98;;;9.70;;
77872;SDS011;67068;52.116;4.440;2024-03-07T12:42:51;17.58;;;8.88;;
77872;SDS011;67068;52.116;4.440;2024-03-07T12:45:19;20.45;;;10.32;;
77872;SDS011;67068;52.116;4.440;2024-03-07T12:47:48;17.27;;;8.23;;
77872;SDS011;67068;52.116;4.440;2024-03-07T12:50:20;17.42;;;9.88;;
77872;SDS011;67068;52.116;4.440;2024-03-07T12:52:46;13.90;;;7.18;;
77872;SDS011;67068;52.116;4.440;2024-03-07T12:55:14;16.83;;;8.30;;
77872;SDS011;67068;52.116;4.440;2024-03-07T12:57:44;17.95;;;9.77;;
77872;SDS011;67068;52.116;4.440;2024-03-07T13:00:09;19.00;;;12.18;;
77872;SDS011;67068;52.116;4.440;2024-03-07T13:02:43;19.05;;;9.13;;
77872;SDS011;67068;52.116;4.440;2024-03-07T13:05:10;17.35;;;9.73;;
77872;SDS011;67068;52.116;4.440;2024-03-07T13:07:43;17.80;;;9.85;;
77872;SDS011;67068;52.116;4.440;2024-03-07T13:10:08;18.40;;;10.52;;
77872;SDS011;67068;52.116;4.440;2024-03-07T13:12:35;17.45;;;8.13;;
77872;SDS011;67068;52.116;4.440;2024-03-07T13:15:01;19.10;;;11.38;;
77872;SDS011;67068;52.116;4.440;2024-03-07T13:17:27;20.63;;;11.82;;
77872;SDS011;67068;52.116;4.440;2024-03-07T13:19:53;17.17;;;9.57;;
77872;SDS011;67068;52.116;4.440;2024-03-07T13:22:25;23.08;;;13.05;;
77872;SDS011;67068;52.116;4.440;2024-03-07T13:24:50;16.90;;;8.73;;
77872;SDS011;67068;52.116;4.440;2024-03-07T13:27:15;20.63;;;11.03;;
77872;SDS011;67068;52.116;4.440;2024-03-07T13:32:10;16.52;;;8.52;;
77872;SDS011;67068;52.116;4.440;2024-03-07T13:34:39;19.13;;;8.63;;
77872;SDS011;67068;52.116;4.440;2024-03-07T13:37:05;20.13;;;11.80;;
77872;SDS011;67068;52.116;4.440;2024-03-07T13:39:30;13.60;;;7.80;;
77872;SDS011;67068;52.116;4.440;2024-03-07T13:41:55;18.85;;;12.13;;
77872;SDS011;67068;52.116;4.440;2024-03-07T13:44:21;13.63;;;6.63;;
77872;SDS011;67068;52.116;4.440;2024-03-07T13:46:47;12.65;;;5.35;;
77872;SDS011;67068;52.116;4.440;2024-03-07T13:49:12;18.73;;;9.07;;
77872;SDS011;67068;52.116;4.440;2024-03-07T13:51:42;18.92;;;10.13;;
77872;SDS011;67068;52.116;4.440;2024-03-07T13:54:24;22.67;;;13.82;;
77872;SDS011;67068;52.116;4.440;2024-03-07T14:02:41;21.02;;;13.30;;
77872;SDS011;67068;52.116;4.440;2024-03-07T14:05:35;20.83;;;8.93;;
77872;SDS011;67068;52.116;4.440;2024-03-07T14:24:42;19.55;;;11.60;;
77872;SDS011;67068;52.116;4.440;2024-03-07T14:29:06;18.07;;;9.73;;
77872;SDS011;67068;52.116;4.440;2024-03-07T14:31:39;18.73;;;9.55;;
77872;SDS011;67068;52.116;4.440;2024-03-07T14:34:18;19.73;;;11.48;;
77872;SDS011;67068;52.116;4.440;2024-03-07T14:39:10;19.73;;;8.33;;
77872;SDS011;67068;52.116;4.440;2024-03-07T14:44:07;16.63;;;8.18;;
77872;SDS011;67068;52.116;4.440;2024-03-07T14:46:32;17.83;;;8.38;;
77872;SDS011;67068;52.116;4.440;2024-03-07T14:48:58;19.23;;;9.38;;
77872;SDS011;67068;52.116;4.440;2024-03-07T14:51:24;19.10;;;10.07;;
77872;SDS011;67068;52.116;4.440;2024-03-07T14:53:50;18.55;;;9.43;;
77872;SDS011;67068;52.116;4.440;2024-03-07T14:56:16;17.80;;;7.65;;
77872;SDS011;67068;52.116;4.440;2024-03-07T14:58:44;15.43;;;7.47;;
77872;SDS011;67068;52.116;4.440;2024-03-07T15:01:10;15.27;;;8.25;;
77872;SDS011;67068;52.116;4.440;2024-03-07T15:03:35;15.27;;;7.38;;